sensor_id;sensor_type;location;lat;lon;timestamp;temperature;humidity
23063;DHT22;11699;43.704;10.430;2023-04-01T00:01:14;14.30;99.90
23063;DHT22;11699;43.704;10.430;2023-04-01T00:03:43;14.40;99.90
23063;DHT22;11699;43.704;10.430;2023-04-01T00:06:13;14.30;99.90
23063;DHT22;11699;43.704;10.430;2023-04-01T00:08:41;14.20;99.90
23063;DHT22;11699;43.704;10.430;2023-04-01T00:11:08;14.20;99.90
23063;DHT22;11699;43.704;10.430;2023-04-01T00:13:35;14.30;99.90
23063;DHT22;11699;43.704;10.430;2023-04-01T00:16:03;14.30;99.90
23063;DHT22;11699;43.704;10.430;2023-04-01T00:18:31;14.20;99.90
23063;DHT22;11699;43.704;10.430;2023-04-01T00:20:59;14.20;99.90
23063;DHT22;11699;43.704;10.430;2023-04-01T00:23:27;14.10;99.90
23063;DHT22;11699;43.704;10.430;2023-04-01T00:25:54;14.20;99.90
23063;DHT22;11699;43.704;10.430;2023-04-01T00:28:21;14.10;99.90
23063;DHT22;11699;43.704;10.430;2023-04-01T00:30:49;14.00;99.90
23063;DHT22;11699;43.704;10.430;2023-04-01T00:33:16;14.00;99.90
23063;DHT22;11699;43.704;10.430;2023-04-01T00:35:43;14.00;99.90
23063;DHT22;11699;43.704;10.430;2023-04-01T00:38:13;13.90;99.90
23063;DHT22;11699;43.704;10.430;2023-04-01T00:40:42;13.70;99.90
23063;DHT22;11699;43.704;10.430;2023-04-01T00:43:11;13.70;99.90
23063;DHT22;11699;43.704;10.430;2023-04-01T00:45:41;13.60;99.90
23063;DHT22;11699;43.704;10.430;2023-04-01T00:48:11;13.60;99.90
23063;DHT22;11699;43.704;10.430;2023-04-01T00:50:42;13.70;99.90
23063;DHT22;11699;43.704;10.430;2023-04-01T00:53:13;13.70;99.90
23063;DHT22;11699;43.704;10.430;2023-04-01T00:55:45;13.70;99.90
23063;DHT22;11699;43.704;10.430;2023-04-01T00:58:17;13.70;99.90
23063;DHT22;11699;43.704;10.430;2023-04-01T01:00:46;13.80;99.90
23063;DHT22;11699;43.704;10.430;2023-04-01T01:03:15;13.90;99.90
23063;DHT22;11699;43.704;10.430;2023-04-01T01:06:06;13.90;99.90
23063;DHT22;11699;43.704;10.430;2023-04-01T01:08:45;14.00;99.90
23063;DHT22;11699;43.704;10.430;2023-04-01T01:11:20;14.00;99.90
23063;DHT22;11699;43.704;10.430;2023-04-01T01:13:56;14.10;99.90
23063;DHT22;11699;43.704;10.430;2023-04-01T01:16:26;14.10;99.90
23063;DHT22;11699;43.704;10.430;2023-04-01T01:19:00;14.10;99.90
23063;DHT22;11699;43.704;10.430;2023-04-01T01:24:34;14.10;99.90
23063;DHT22;11699;43.704;10.430;2023-04-01T01:27:09;14.10;99.90
23063;DHT22;11699;43.704;10.430;2023-04-01T01:30:11;14.20;99.90
23063;DHT22;11699;43.704;10.430;2023-04-01T01:33:06;14.20;99.90
23063;DHT22;11699;43.704;10.430;2023-04-01T01:35:40;14.20;99.90
23063;DHT22;11699;43.704;10.430;2023-04-01T01:38:11;14.20;99.90
23063;DHT22;11699;43.704;10.430;2023-04-01T01:40:42;14.20;99.90
23063;DHT22;11699;43.704;10.430;2023-04-01T01:43:12;14.20;99.90
23063;DHT22;11699;43.704;10.430;2023-04-01T01:45:44;14.10;99.90
23063;DHT22;11699;43.704;10.430;2023-04-01T01:48:13;14.10;99.90
23063;DHT22;11699;43.704;10.430;2023-04-01T01:50:44;14.00;99.90
23063;DHT22;11699;43.704;10.430;2023-04-01T01:53:13;14.00;99.90
23063;DHT22;11699;43.704;10.430;2023-04-01T01:55:42;14.00;99.90
23063;DHT22;11699;43.704;10.430;2023-04-01T01:58:13;14.10;99.90
23063;DHT22;11699;43.704;10.430;2023-04-01T02:00:46;14.30;99.90
23063;DHT22;11699;43.704;10.430;2023-04-01T02:03:14;14.20;99.90
23063;DHT22;11699;43.704;10.430;2023-04-01T02:05:44;14.20;99.90
23063;DHT22;11699;43.704;10.430;2023-04-01T02:08:14;14.10;99.90
23063;DHT22;11699;43.704;10.430;2023-04-01T02:10:47;14.20;99.90
23063;DHT22;11699;43.704;10.430;2023-04-01T02:13:21;14.30;99.90
23063;DHT22;11699;43.704;10.430;2023-04-01T02:15:53;14.30;99.90
23063;DHT22;11699;43.704;10.430;2023-04-01T02:18:22;14.40;99.90
23063;DHT22;11699;43.704;10.430;2023-04-01T02:20:51;14.40;99.90
23063;DHT22;11699;43.704;10.430;2023-04-01T02:23:19;14.40;99.90
23063;DHT22;11699;43.704;10.430;2023-04-01T02:25:47;14.40;99.90
23063;DHT22;11699;43.704;10.430;2023-04-01T02:28:14;14.30;99.90
23063;DHT22;11699;43.704;10.430;2023-04-01T02:30:46;14.30;99.90
23063;DHT22;11699;43.704;10.430;2023-04-01T02:33:15;14.30;99.90
23063;DHT22;11699;43.704;10.430;2023-04-01T02:35:43;14.30;99.90
23063;DHT22;11699;43.704;10.430;2023-04-01T02:38:12;14.20;99.90
23063;DHT22;11699;43.704;10.430;2023-04-01T02:40:43;14.10;99.90
23063;DHT22;11699;43.704;10.430;2023-04-01T02:43:11;14.00;99.90
23063;DHT22;11699;43.704;10.430;2023-04-01T02:45:38;13.90;99.90
23063;DHT22;11699;43.704;10.430;2023-04-01T02:48:05;14.00;99.90
23063;DHT22;11699;43.704;10.430;2023-04-01T02:50:33;13.90;99.90
23063;DHT22;11699;43.704;10.430;2023-04-01T02:53:00;13.80;99.90
23063;DHT22;11699;43.704;10.430;2023-04-01T02:55:30;13.80;99.90
23063;DHT22;11699;43.704;10.430;2023-04-01T02:57:57;13.70;99.90
23063;DHT22;11699;43.704;10.430;2023-04-01T03:00:25;13.60;99.90
23063;DHT22;11699;43.704;10.430;2023-04-01T03:02:52;13.50;99.90
23063;DHT22;11699;43.704;10.430;2023-04-01T03:05:20;13.50;99.90
23063;DHT22;11699;43.704;10.430;2023-04-01T03:07:47;13.40;99.90
23063;DHT22;11699;43.704;10.430;2023-04-01T03:10:14;13.30;99.90
23063;DHT22;11699;43.704;10.430;2023-04-01T03:12:43;13.30;99.90
23063;DHT22;11699;43.704;10.430;2023-04-01T03:15:11;13.20;99.90
23063;DHT22;11699;43.704;10.430;2023-04-01T03:17:39;13.20;99.90
23063;DHT22;11699;43.704;10.430;2023-04-01T03:20:08;13.00;99.90
23063;DHT22;11699;43.704;10.430;2023-04-01T03:22:36;13.00;99.90
23063;DHT22;11699;43.704;10.430;2023-04-01T03:25:05;12.90;99.90
23063;DHT22;11699;43.704;10.430;2023-04-01T03:27:33;12.80;99.90
23063;DHT22;11699;43.704;10.430;2023-04-01T03:30:03;12.70;99.90
23063;DHT22;11699;43.704;10.430;2023-04-01T03:32:31;12.70;99.90
23063;DHT22;11699;43.704;10.430;2023-04-01T03:34:58;12.70;99.90
23063;DHT22;11699;43.704;10.430;2023-04-01T03:37:26;12.60;99.90
23063;DHT22;11699;43.704;10.430;2023-04-01T03:39:53;12.50;99.90
23063;DHT22;11699;43.704;10.430;2023-04-01T03:42:20;12.60;99.90
23063;DHT22;11699;43.704;10.430;2023-04-01T03:44:47;12.70;99.90
23063;DHT22;11699;43.704;10.430;2023-04-01T03:47:16;12.70;99.90
23063;DHT22;11699;43.704;10.430;2023-04-01T03:49:43;12.90;99.90
23063;DHT22;11699;43.704;10.430;2023-04-01T03:52:11;12.90;99.90
23063;DHT22;11699;43.704;10.430;2023-04-01T03:54:38;12.90;99.90
23063;DHT22;11699;43.704;10.430;2023-04-01T03:57:06;13.00;99.90
23063;DHT22;11699;43.704;10.430;2023-04-01T03:59:34;12.90;99.90
23063;DHT22;11699;43.704;10.430;2023-04-01T04:02:01;12.80;99.90
23063;DHT22;11699;43.704;10.430;2023-04-01T04:04:30;12.70;99.90
23063;DHT22;11699;43.704;10.430;2023-04-01T04:06:58;12.70;99.90
23063;DHT22;11699;43.704;10.430;2023-04-01T04:09:25;12.70;99.90
23063;DHT22;11699;43.704;10.430;2023-04-01T04:11:52;12.70;99.90
23063;DHT22;11699;43.704;10.430;2023-04-01T04:14:20;12.80;99.90
23063;DHT22;11699;43.704;10.430;2023-04-01T04:16:47;12.90;99.90
23063;DHT22;11699;43.704;10.430;2023-04-01T04:19:14;12.90;99.90
23063;DHT22;11699;43.704;10.430;2023-04-01T04:21:43;12.80;99.90
23063;DHT22;11699;43.704;10.430;2023-04-01T04:24:10;12.80;99.90
23063;DHT22;11699;43.704;10.430;2023-04-01T04:26:38;12.60;99.90
23063;DHT22;11699;43.704;10.430;2023-04-01T04:29:05;12.40;99.90
23063;DHT22;11699;43.704;10.430;2023-04-01T04:31:32;12.40;99.90
23063;DHT22;11699;43.704;10.430;2023-04-01T04:34:00;12.30;99.90
23063;DHT22;11699;43.704;10.430;2023-04-01T04:36:28;12.20;99.90
23063;DHT22;11699;43.704;10.430;2023-04-01T04:38:56;12.20;99.90
23063;DHT22;11699;43.704;10.430;2023-04-01T04:41:27;12.10;99.90
23063;DHT22;11699;43.704;10.430;2023-04-01T04:43:55;11.90;99.90
23063;DHT22;11699;43.704;10.430;2023-04-01T04:46:25;11.80;99.90
23063;DHT22;11699;43.704;10.430;2023-04-01T04:48:52;11.70;99.90
23063;DHT22;11699;43.704;10.430;2023-04-01T04:51:20;11.70;99.90
23063;DHT22;11699;43.704;10.430;2023-04-01T04:53:48;11.90;99.90
23063;DHT22;11699;43.704;10.430;2023-04-01T04:56:19;12.10;99.90
23063;DHT22;11699;43.704;10.430;2023-04-01T04:58:47;12.30;99.90
23063;DHT22;11699;43.704;10.430;2023-04-01T05:01:16;12.20;99.90
23063;DHT22;11699;43.704;10.430;2023-04-01T05:03:43;12.10;99.90
23063;DHT22;11699;43.704;10.430;2023-04-01T05:06:13;12.00;99.90
23063;DHT22;11699;43.704;10.430;2023-04-01T05:08:41;12.00;99.90
23063;DHT22;11699;43.704;10.430;2023-04-01T05:11:10;12.00;99.90
23063;DHT22;11699;43.704;10.430;2023-04-01T05:13:40;11.90;99.90
23063;DHT22;11699;43.704;10.430;2023-04-01T05:16:09;11.90;99.90
23063;DHT22;11699;43.704;10.430;2023-04-01T05:18:36;11.80;99.90
23063;DHT22;11699;43.704;10.430;2023-04-01T05:21:04;11.80;99.90
23063;DHT22;11699;43.704;10.430;2023-04-01T05:23:32;11.80;99.90
23063;DHT22;11699;43.704;10.430;2023-04-01T05:26:03;11.70;99.90
23063;DHT22;11699;43.704;10.430;2023-04-01T05:28:30;11.70;99.90
23063;DHT22;11699;43.704;10.430;2023-04-01T05:31:00;11.60;99.90
23063;DHT22;11699;43.704;10.430;2023-04-01T05:33:28;11.60;99.90
23063;DHT22;11699;43.704;10.430;2023-04-01T05:35:56;11.70;99.90
23063;DHT22;11699;43.704;10.430;2023-04-01T05:38:23;11.70;99.90
23063;DHT22;11699;43.704;10.430;2023-04-01T05:40:51;11.70;99.90
23063;DHT22;11699;43.704;10.430;2023-04-01T05:43:18;11.70;99.90
23063;DHT22;11699;43.704;10.430;2023-04-01T05:45:45;11.80;99.90
23063;DHT22;11699;43.704;10.430;2023-04-01T05:48:14;11.90;99.90
23063;DHT22;11699;43.704;10.430;2023-04-01T05:50:41;12.00;99.90
23063;DHT22;11699;43.704;10.430;2023-04-01T05:53:08;12.10;99.90
23063;DHT22;11699;43.704;10.430;2023-04-01T05:55:35;12.20;99.90
23063;DHT22;11699;43.704;10.430;2023-04-01T05:58:03;12.50;99.90
23063;DHT22;11699;43.704;10.430;2023-04-01T06:00:30;12.70;99.90
23063;DHT22;11699;43.704;10.430;2023-04-01T06:02:58;12.90;99.90
23063;DHT22;11699;43.704;10.430;2023-04-01T06:05:30;12.90;99.90
23063;DHT22;11699;43.704;10.430;2023-04-01T06:07:59;13.00;99.90
23063;DHT22;11699;43.704;10.430;2023-04-01T06:10:39;13.10;99.90
23063;DHT22;11699;43.704;10.430;2023-04-01T06:13:16;13.30;99.90
23063;DHT22;11699;43.704;10.430;2023-04-01T06:15:55;13.80;99.90
23063;DHT22;11699;43.704;10.430;2023-04-01T06:18:41;14.40;99.90
23063;DHT22;11699;43.704;10.430;2023-04-01T06:21:27;14.60;99.90
23063;DHT22;11699;43.704;10.430;2023-04-01T06:24:06;15.00;99.90
23063;DHT22;11699;43.704;10.430;2023-04-01T06:26:41;15.40;99.90
23063;DHT22;11699;43.704;10.430;2023-04-01T06:29:44;15.80;99.90
23063;DHT22;11699;43.704;10.430;2023-04-01T06:32:23;16.10;99.90
23063;DHT22;11699;43.704;10.430;2023-04-01T06:35:21;16.10;99.90
23063;DHT22;11699;43.704;10.430;2023-04-01T06:38:19;16.10;99.90
23063;DHT22;11699;43.704;10.430;2023-04-01T06:41:04;16.00;99.90
23063;DHT22;11699;43.704;10.430;2023-04-01T06:43:44;15.80;99.90
23063;DHT22;11699;43.704;10.430;2023-04-01T06:46:21;15.80;99.90
23063;DHT22;11699;43.704;10.430;2023-04-01T06:49:05;15.90;99.90
23063;DHT22;11699;43.704;10.430;2023-04-01T06:51:39;16.30;99.90
23063;DHT22;11699;43.704;10.430;2023-04-01T06:54:12;16.90;99.90
23063;DHT22;11699;43.704;10.430;2023-04-01T06:56:44;18.70;99.90
23063;DHT22;11699;43.704;10.430;2023-04-01T06:59:16;20.80;99.90
23063;DHT22;11699;43.704;10.430;2023-04-01T07:01:47;22.10;99.90
23063;DHT22;11699;43.704;10.430;2023-04-01T07:04:17;21.30;99.90
23063;DHT22;11699;43.704;10.430;2023-04-01T07:06:48;21.10;99.90
23063;DHT22;11699;43.704;10.430;2023-04-01T07:09:24;21.40;99.90
23063;DHT22;11699;43.704;10.430;2023-04-01T07:11:54;21.50;99.90
23063;DHT22;11699;43.704;10.430;2023-04-01T07:14:28;21.10;99.90
23063;DHT22;11699;43.704;10.430;2023-04-01T07:16:59;20.90;99.90
23063;DHT22;11699;43.704;10.430;2023-04-01T07:19:30;20.60;99.90
23063;DHT22;11699;43.704;10.430;2023-04-01T07:22:01;21.00;99.90
23063;DHT22;11699;43.704;10.430;2023-04-01T07:24:34;21.60;99.90
23063;DHT22;11699;43.704;10.430;2023-04-01T07:27:08;21.10;99.90
23063;DHT22;11699;43.704;10.430;2023-04-01T07:29:36;19.60;99.90
23063;DHT22;11699;43.704;10.430;2023-04-01T07:32:14;19.30;99.90
23063;DHT22;11699;43.704;10.430;2023-04-01T07:35:02;20.00;99.90
23063;DHT22;11699;43.704;10.430;2023-04-01T07:37:38;19.70;99.90
23063;DHT22;11699;43.704;10.430;2023-04-01T07:40:17;19.60;99.90
23063;DHT22;11699;43.704;10.430;2023-04-01T07:42:58;21.60;99.90
23063;DHT22;11699;43.704;10.430;2023-04-01T07:45:31;23.50;99.90
23063;DHT22;11699;43.704;10.430;2023-04-01T07:48:10;23.00;99.90
23063;DHT22;11699;43.704;10.430;2023-04-01T07:50:44;21.60;99.90
23063;DHT22;11699;43.704;10.430;2023-04-01T07:53:19;21.80;99.90
23063;DHT22;11699;43.704;10.430;2023-04-01T07:55:56;23.50;99.90
23063;DHT22;11699;43.704;10.430;2023-04-01T07:58:31;25.20;99.90
23063;DHT22;11699;43.704;10.430;2023-04-01T08:01:08;26.60;99.90
23063;DHT22;11699;43.704;10.430;2023-04-01T08:03:48;26.70;99.90
23063;DHT22;11699;43.704;10.430;2023-04-01T08:06:20;27.30;99.90
23063;DHT22;11699;43.704;10.430;2023-04-01T08:08:59;28.00;99.90
23063;DHT22;11699;43.704;10.430;2023-04-01T08:11:41;28.10;99.90
23063;DHT22;11699;43.704;10.430;2023-04-01T08:14:19;28.10;99.90
23063;DHT22;11699;43.704;10.430;2023-04-01T08:16:55;28.40;99.90
23063;DHT22;11699;43.704;10.430;2023-04-01T08:19:34;28.70;99.60
23063;DHT22;11699;43.704;10.430;2023-04-01T08:22:11;29.40;99.40
23063;DHT22;11699;43.704;10.430;2023-04-01T08:24:45;29.60;98.10
23063;DHT22;11699;43.704;10.430;2023-04-01T08:27:17;30.10;97.20
23063;DHT22;11699;43.704;10.430;2023-04-01T08:29:52;30.10;97.90
23063;DHT22;11699;43.704;10.430;2023-04-01T08:32:26;30.10;96.90
23063;DHT22;11699;43.704;10.430;2023-04-01T08:35:01;30.60;96.70
23063;DHT22;11699;43.704;10.430;2023-04-01T08:37:38;28.20;97.10
23063;DHT22;11699;43.704;10.430;2023-04-01T08:40:25;25.00;99.90
23063;DHT22;11699;43.704;10.430;2023-04-01T08:43:06;23.30;99.90
23063;DHT22;11699;43.704;10.430;2023-04-01T08:45:48;22.30;99.90
23063;DHT22;11699;43.704;10.430;2023-04-01T08:48:42;21.40;99.90
23063;DHT22;11699;43.704;10.430;2023-04-01T08:51:26;22.90;99.90
23063;DHT22;11699;43.704;10.430;2023-04-01T08:54:08;25.60;99.90
23063;DHT22;11699;43.704;10.430;2023-04-01T08:56:46;25.10;99.90
23063;DHT22;11699;43.704;10.430;2023-04-01T08:59:37;23.40;99.90
23063;DHT22;11699;43.704;10.430;2023-04-01T09:02:49;25.30;99.90
23063;DHT22;11699;43.704;10.430;2023-04-01T09:05:43;28.20;99.20
23063;DHT22;11699;43.704;10.430;2023-04-01T09:08:31;28.90;96.10
23063;DHT22;11699;43.704;10.430;2023-04-01T09:11:06;28.10;97.10
23063;DHT22;11699;43.704;10.430;2023-04-01T09:14:01;27.90;96.00
23063;DHT22;11699;43.704;10.430;2023-04-01T09:19:35;29.80;95.10
23063;DHT22;11699;43.704;10.430;2023-04-01T09:22:33;30.70;93.40
23063;DHT22;11699;43.704;10.430;2023-04-01T09:25:26;30.70;94.10
23063;DHT22;11699;43.704;10.430;2023-04-01T09:28:05;31.10;93.10
23063;DHT22;11699;43.704;10.430;2023-04-01T09:30:55;29.90;91.60
23063;DHT22;11699;43.704;10.430;2023-04-01T09:36:44;29.60;93.00
23063;DHT22;11699;43.704;10.430;2023-04-01T09:39:30;29.30;93.50
23063;DHT22;11699;43.704;10.430;2023-04-01T09:42:24;29.00;93.40
23063;DHT22;11699;43.704;10.430;2023-04-01T09:44:59;30.00;93.30
23063;DHT22;11699;43.704;10.430;2023-04-01T09:47:43;29.40;93.50
23063;DHT22;11699;43.704;10.430;2023-04-01T09:53:14;29.00;92.90
23063;DHT22;11699;43.704;10.430;2023-04-01T09:56:19;29.50;92.80
23063;DHT22;11699;43.704;10.430;2023-04-01T10:02:21;31.00;91.90
23063;DHT22;11699;43.704;10.430;2023-04-01T10:05:27;30.80;91.90
23063;DHT22;11699;43.704;10.430;2023-04-01T10:17:42;30.90;89.90
23063;DHT22;11699;43.704;10.430;2023-04-01T10:20:27;32.10;91.00
23063;DHT22;11699;43.704;10.430;2023-04-01T10:26:21;31.80;90.00
23063;DHT22;11699;43.704;10.430;2023-04-01T10:29:21;32.70;90.20
23063;DHT22;11699;43.704;10.430;2023-04-01T10:38:31;32.10;88.30
23063;DHT22;11699;43.704;10.430;2023-04-01T10:41:53;32.20;87.50
23063;DHT22;11699;43.704;10.430;2023-04-01T10:47:46;32.60;86.20
23063;DHT22;11699;43.704;10.430;2023-04-01T10:50:24;32.60;85.50
23063;DHT22;11699;43.704;10.430;2023-04-01T10:53:32;33.00;84.20
23063;DHT22;11699;43.704;10.430;2023-04-01T11:02:58;34.20;79.60
23063;DHT22;11699;43.704;10.430;2023-04-01T11:06:09;32.80;83.30
23063;DHT22;11699;43.704;10.430;2023-04-01T11:12:46;33.30;80.40
23063;DHT22;11699;43.704;10.430;2023-04-01T11:15:44;33.60;82.20
23063;DHT22;11699;43.704;10.430;2023-04-01T11:18:47;34.00;80.40
23063;DHT22;11699;43.704;10.430;2023-04-01T11:21:44;33.40;80.20
23063;DHT22;11699;43.704;10.430;2023-04-01T11:27:11;34.20;78.50
23063;DHT22;11699;43.704;10.430;2023-04-01T11:29:58;33.30;77.00
23063;DHT22;11699;43.704;10.430;2023-04-01T11:32:42;33.10;81.70
23063;DHT22;11699;43.704;10.430;2023-04-01T11:41:17;33.40;79.20
23063;DHT22;11699;43.704;10.430;2023-04-01T11:43:59;32.50;82.10
23063;DHT22;11699;43.704;10.430;2023-04-01T11:46:33;33.50;82.70
23063;DHT22;11699;43.704;10.430;2023-04-01T11:49:11;33.50;80.80
23063;DHT22;11699;43.704;10.430;2023-04-01T11:52:08;33.00;80.90
23063;DHT22;11699;43.704;10.430;2023-04-01T11:54:54;32.70;80.40
23063;DHT22;11699;43.704;10.430;2023-04-01T11:57:41;32.50;78.80
23063;DHT22;11699;43.704;10.430;2023-04-01T12:00:37;32.60;81.30
23063;DHT22;11699;43.704;10.430;2023-04-01T12:03:21;33.10;81.60
23063;DHT22;11699;43.704;10.430;2023-04-01T12:05:58;32.50;79.90
23063;DHT22;11699;43.704;10.430;2023-04-01T12:08:39;32.20;81.20
23063;DHT22;11699;43.704;10.430;2023-04-01T12:11:17;32.70;79.00
23063;DHT22;11699;43.704;10.430;2023-04-01T12:13:52;33.00;80.30
23063;DHT22;11699;43.704;10.430;2023-04-01T12:16:45;32.30;79.60
23063;DHT22;11699;43.704;10.430;2023-04-01T12:19:19;32.30;80.60
23063;DHT22;11699;43.704;10.430;2023-04-01T12:21:58;32.60;80.20
23063;DHT22;11699;43.704;10.430;2023-04-01T12:24:54;32.40;80.80
23063;DHT22;11699;43.704;10.430;2023-04-01T12:27:35;32.40;80.40
23063;DHT22;11699;43.704;10.430;2023-04-01T12:30:27;31.90;81.00
23063;DHT22;11699;43.704;10.430;2023-04-01T12:33:11;31.20;81.10
23063;DHT22;11699;43.704;10.430;2023-04-01T12:35:53;31.60;80.50
23063;DHT22;11699;43.704;10.430;2023-04-01T12:38:30;31.00;80.00
23063;DHT22;11699;43.704;10.430;2023-04-01T12:41:09;30.90;77.10
23063;DHT22;11699;43.704;10.430;2023-04-01T12:46:54;30.80;77.70
23063;DHT22;11699;43.704;10.430;2023-04-01T12:49:34;30.50;78.60
23063;DHT22;11699;43.704;10.430;2023-04-01T12:52:10;31.70;78.00
23063;DHT22;11699;43.704;10.430;2023-04-01T13:01:02;30.60;79.50
23063;DHT22;11699;43.704;10.430;2023-04-01T13:03:59;29.50;83.10
23063;DHT22;11699;43.704;10.430;2023-04-01T13:06:56;29.70;84.70
23063;DHT22;11699;43.704;10.430;2023-04-01T13:09:35;29.70;81.90
23063;DHT22;11699;43.704;10.430;2023-04-01T13:12:25;29.80;83.40
23063;DHT22;11699;43.704;10.430;2023-04-01T13:15:29;29.70;82.70
23063;DHT22;11699;43.704;10.430;2023-04-01T13:18:10;29.70;81.80
23063;DHT22;11699;43.704;10.430;2023-04-01T13:20:45;30.20;79.40
23063;DHT22;11699;43.704;10.430;2023-04-01T13:23:36;30.50;79.50
23063;DHT22;11699;43.704;10.430;2023-04-01T13:26:13;30.60;80.90
23063;DHT22;11699;43.704;10.430;2023-04-01T13:28:43;30.20;80.10
23063;DHT22;11699;43.704;10.430;2023-04-01T13:31:25;29.80;82.00
23063;DHT22;11699;43.704;10.430;2023-04-01T13:34:04;30.20;82.50
23063;DHT22;11699;43.704;10.430;2023-04-01T13:36:44;29.20;83.60
23063;DHT22;11699;43.704;10.430;2023-04-01T13:39:21;28.90;85.10
23063;DHT22;11699;43.704;10.430;2023-04-01T13:42:02;28.90;83.90
23063;DHT22;11699;43.704;10.430;2023-04-01T13:44:36;28.50;84.20
23063;DHT22;11699;43.704;10.430;2023-04-01T13:47:18;28.10;85.90
23063;DHT22;11699;43.704;10.430;2023-04-01T13:55:55;27.00;88.60
23063;DHT22;11699;43.704;10.430;2023-04-01T14:01:23;26.50;88.00
23063;DHT22;11699;43.704;10.430;2023-04-01T14:04:30;26.00;89.70
23063;DHT22;11699;43.704;10.430;2023-04-01T14:07:18;24.90;90.70
23063;DHT22;11699;43.704;10.430;2023-04-01T14:10:13;25.10;91.20
23063;DHT22;11699;43.704;10.430;2023-04-01T14:12:49;25.30;89.80
23063;DHT22;11699;43.704;10.430;2023-04-01T14:15:38;25.90;90.00
23063;DHT22;11699;43.704;10.430;2023-04-01T14:18:21;26.60;88.00
23063;DHT22;11699;43.704;10.430;2023-04-01T14:20:59;26.90;88.30
23063;DHT22;11699;43.704;10.430;2023-04-01T14:23:51;27.30;87.80
23063;DHT22;11699;43.704;10.430;2023-04-01T14:26:35;27.20;87.80
23063;DHT22;11699;43.704;10.430;2023-04-01T14:29:18;26.60;87.00
23063;DHT22;11699;43.704;10.430;2023-04-01T14:32:02;25.80;89.40
23063;DHT22;11699;43.704;10.430;2023-04-01T14:34:47;26.30;89.60
23063;DHT22;11699;43.704;10.430;2023-04-01T14:37:35;25.70;90.00
23063;DHT22;11699;43.704;10.430;2023-04-01T14:40:26;25.40;89.90
23063;DHT22;11699;43.704;10.430;2023-04-01T14:43:08;25.70;90.30
23063;DHT22;11699;43.704;10.430;2023-04-01T14:46:08;26.20;90.70
23063;DHT22;11699;43.704;10.430;2023-04-01T14:48:50;26.10;88.10
23063;DHT22;11699;43.704;10.430;2023-04-01T14:51:22;25.60;89.20
23063;DHT22;11699;43.704;10.430;2023-04-01T14:54:00;25.70;90.00
23063;DHT22;11699;43.704;10.430;2023-04-01T14:56:37;25.70;90.90
23063;DHT22;11699;43.704;10.430;2023-04-01T14:59:09;25.80;90.00
23063;DHT22;11699;43.704;10.430;2023-04-01T15:01:43;25.30;90.50
23063;DHT22;11699;43.704;10.430;2023-04-01T15:07:50;24.90;91.60
23063;DHT22;11699;43.704;10.430;2023-04-01T15:13:36;24.00;92.70
23063;DHT22;11699;43.704;10.430;2023-04-01T15:16:13;24.10;92.40
23063;DHT22;11699;43.704;10.430;2023-04-01T15:18:53;24.10;92.30
23063;DHT22;11699;43.704;10.430;2023-04-01T15:21:44;24.20;92.60
23063;DHT22;11699;43.704;10.430;2023-04-01T15:24:20;23.90;92.00
23063;DHT22;11699;43.704;10.430;2023-04-01T15:27:13;23.90;92.30
23063;DHT22;11699;43.704;10.430;2023-04-01T15:33:06;24.20;92.30
23063;DHT22;11699;43.704;10.430;2023-04-01T15:35:42;23.30;93.10
23063;DHT22;11699;43.704;10.430;2023-04-01T15:38:23;23.30;93.20
23063;DHT22;11699;43.704;10.430;2023-04-01T15:40:57;22.40;94.40
23063;DHT22;11699;43.704;10.430;2023-04-01T15:43:40;22.00;94.90
23063;DHT22;11699;43.704;10.430;2023-04-01T15:46:31;21.40;95.90
23063;DHT22;11699;43.704;10.430;2023-04-01T15:49:23;21.10;96.30
23063;DHT22;11699;43.704;10.430;2023-04-01T15:52:11;20.90;96.30
23063;DHT22;11699;43.704;10.430;2023-04-01T15:55:01;19.70;98.80
23063;DHT22;11699;43.704;10.430;2023-04-01T15:57:40;19.60;99.90
23063;DHT22;11699;43.704;10.430;2023-04-01T16:00:23;20.10;99.90
23063;DHT22;11699;43.704;10.430;2023-04-01T16:05:54;20.50;99.90
23063;DHT22;11699;43.704;10.430;2023-04-01T16:08:46;20.60;99.90
23063;DHT22;11699;43.704;10.430;2023-04-01T16:11:23;20.50;99.90
23063;DHT22;11699;43.704;10.430;2023-04-01T16:13:59;20.10;99.90
23063;DHT22;11699;43.704;10.430;2023-04-01T16:16:44;20.00;99.90
23063;DHT22;11699;43.704;10.430;2023-04-01T16:19:32;19.60;99.90
23063;DHT22;11699;43.704;10.430;2023-04-01T16:22:05;19.10;99.90
23063;DHT22;11699;43.704;10.430;2023-04-01T16:24:38;19.00;99.90
23063;DHT22;11699;43.704;10.430;2023-04-01T16:27:12;18.80;99.90
23063;DHT22;11699;43.704;10.430;2023-04-01T16:29:47;18.70;99.90
23063;DHT22;11699;43.704;10.430;2023-04-01T16:32:22;18.40;99.90
23063;DHT22;11699;43.704;10.430;2023-04-01T16:35:03;18.20;99.90
23063;DHT22;11699;43.704;10.430;2023-04-01T16:37:36;18.00;99.90
23063;DHT22;11699;43.704;10.430;2023-04-01T16:40:15;18.10;99.90
23063;DHT22;11699;43.704;10.430;2023-04-01T16:42:48;18.10;99.90
23063;DHT22;11699;43.704;10.430;2023-04-01T16:45:25;18.10;99.90
23063;DHT22;11699;43.704;10.430;2023-04-01T16:47:57;17.90;99.90
23063;DHT22;11699;43.704;10.430;2023-04-01T16:50:30;17.90;99.90
23063;DHT22;11699;43.704;10.430;2023-04-01T16:53:09;17.80;99.90
23063;DHT22;11699;43.704;10.430;2023-04-01T16:55:46;17.50;99.90
23063;DHT22;11699;43.704;10.430;2023-04-01T16:58:21;17.30;99.90
23063;DHT22;11699;43.704;10.430;2023-04-01T17:00:51;17.10;99.90
23063;DHT22;11699;43.704;10.430;2023-04-01T17:03:27;17.00;99.90
23063;DHT22;11699;43.704;10.430;2023-04-01T17:06:07;17.00;99.90
23063;DHT22;11699;43.704;10.430;2023-04-01T17:08:51;17.00;99.90
23063;DHT22;11699;43.704;10.430;2023-04-01T17:11:24;16.80;99.90
23063;DHT22;11699;43.704;10.430;2023-04-01T17:13:58;16.60;99.90
23063;DHT22;11699;43.704;10.430;2023-04-01T17:16:45;16.60;99.90
23063;DHT22;11699;43.704;10.430;2023-04-01T17:19:26;16.60;99.90
23063;DHT22;11699;43.704;10.430;2023-04-01T17:22:07;16.40;99.90
23063;DHT22;11699;43.704;10.430;2023-04-01T17:24:51;16.30;99.90
23063;DHT22;11699;43.704;10.430;2023-04-01T17:27:31;16.20;99.90
23063;DHT22;11699;43.704;10.430;2023-04-01T17:30:26;16.00;99.90
23063;DHT22;11699;43.704;10.430;2023-04-01T17:33:12;15.90;99.90
23063;DHT22;11699;43.704;10.430;2023-04-01T17:35:54;15.90;99.90
23063;DHT22;11699;43.704;10.430;2023-04-01T17:38:36;15.70;99.90
23063;DHT22;11699;43.704;10.430;2023-04-01T17:41:11;15.70;99.90
23063;DHT22;11699;43.704;10.430;2023-04-01T17:43:48;15.60;99.90